Velserdiep — PBLP — position and weather

sailwx.info

Track history (hours):
 
Tides and Currents Weather Stations Pressure Air Temp Water Temp Dewpoint Dewpoint Depression Visibility Wind Speed Wind Dir Waves Ship Positions

Velserdiep

Last reported at 2016-Aug-29 19:33 UTC. Time now 2016-Aug-29 20:00 UTC.
Position N 52°28' E 004°35'.

Length 120 m; draft 5 m.

Type: Cargo ship. MMSI: 244484000.

Date/timePositionNaut miles runAvg speedWind from/ knotsBaromVisibWave heightAir tempDewpointWater temp
2016-Aug-29 19:33N 52°28' E 004°35'0 0.0
2016-Aug-29 18:33N 52°28' E 004°35'0 0.0
2016-Aug-29 17:33N 52°28' E 004°35'0 0.0
2016-Aug-29 16:33N 52°28' E 004°35'0 0.0
2016-Aug-29 15:33N 52°28' E 004°35'0 0.0
2016-Aug-29 14:33N 52°28' E 004°35'0 0.0
2016-Aug-29 13:33N 52°28' E 004°35'0 0.0
2016-Aug-29 12:33N 52°28' E 004°35'6 6.2
2016-Aug-29 11:34N 52°32' E 004°27'7 7.0
2016-Aug-29 10:33N 52°38' E 004°30'6 6.2
2016-Aug-29 09:33N 52°32' E 004°31'5 5.2
2016-Aug-29 08:33N 52°28' E 004°35'0 0.0
2016-Aug-29 07:33N 52°28' E 004°35'0 0.0
2016-Aug-29 06:33N 52°28' E 004°35'0 0.0
2016-Aug-29 05:33N 52°28' E 004°35'0 0.0
2016-Aug-29 04:33N 52°28' E 004°35'0 0.0
2016-Aug-29 03:34N 52°28' E 004°35'0 0.0
2016-Aug-29 02:34N 52°28' E 004°35'0 0.0
2016-Aug-29 01:33N 52°28' E 004°35'0 0.0
2016-Aug-29 00:33N 52°28' E 004°35'0 0.0
2016-Aug-28 23:33N 52°28' E 004°35'0 0.0
2016-Aug-28 22:33N 52°28' E 004°35'0 0.0
2016-Aug-28 21:33N 52°28' E 004°35'0 0.0
2016-Aug-28 20:33N 52°28' E 004°35'0 0.0
2016-Aug-28 19:33N 52°28' E 004°35'0 0.0
2016-Aug-28 18:33N 52°28' E 004°35'0 0.0
2016-Aug-28 17:33N 52°28' E 004°35'0 0.0
2016-Aug-28 16:33N 52°28' E 004°35'0 0.0
2016-Aug-28 15:33N 52°28' E 004°35'0 0.0
2016-Aug-28 14:33N 52°28' E 004°35'0 0.0
2016-Aug-28 13:33N 52°28' E 004°35'0 0.0
2016-Aug-28 12:33N 52°28' E 004°35'0 0.0
2016-Aug-28 11:33N 52°28' E 004°35'0 0.0
2016-Aug-28 10:34N 52°28' E 004°35'0 0.0
2016-Aug-28 09:33N 52°28' E 004°35'0 0.0
2016-Aug-28 08:33N 52°28' E 004°35'0 0.0
2016-Aug-28 07:33N 52°28' E 004°35'0 0.0
2016-Aug-28 06:33N 52°28' E 004°35'0 0.0
2016-Aug-28 05:33N 52°28' E 004°35'0 0.0
2016-Aug-28 04:34N 52°28' E 004°35'0 0.0
2016-Aug-28 03:33N 52°28' E 004°35'0 0.0
2016-Aug-28 02:33N 52°28' E 004°35'0 0.0
2016-Aug-28 01:33N 52°28' E 004°35'0 0.0
2016-Aug-28 00:34N 52°28' E 004°35'0 0.0
2016-Aug-27 23:34N 52°28' E 004°35'0 0.0
2016-Aug-27 22:33N 52°28' E 004°35'0 0.0
2016-Aug-27 21:33N 52°28' E 004°35'0 0.0
2016-Aug-27 20:34N 52°28' E 004°35'0 0.0
2016-Aug-27 19:34N 52°28' E 004°35'0 0.0
2016-Aug-27 18:34N 52°28' E 004°35'0 0.0
2016-Aug-27 17:33N 52°28' E 004°35'0 0.0
2016-Aug-27 16:33N 52°28' E 004°35'0 0.0
2016-Aug-27 15:33N 52°28' E 004°35'0 0.0
2016-Aug-27 14:33N 52°28' E 004°35'0 0.0
2016-Aug-27 13:33N 52°28' E 004°35'0 0.0
2016-Aug-27 12:33N 52°28' E 004°35'0 0.0
2016-Aug-27 11:33N 52°28' E 004°35'0 0.0
2016-Aug-27 10:33N 52°28' E 004°35'0 0.0
2016-Aug-27 09:33N 52°28' E 004°35'0 0.0
2016-Aug-27 08:33N 52°28' E 004°35'5 5.3
2016-Aug-27 07:33N 52°32' E 004°31'7 7.3
2016-Aug-27 06:33N 52°40' E 004°29'6 3.1
2016-Aug-27 04:33N 52°34' E 004°27'6 5.9
2016-Aug-27 03:33N 52°28' E 004°32'2 2.0
2016-Aug-27 02:33N 52°28' E 004°35'0 0.0
2016-Aug-27 01:33N 52°28' E 004°35'0 0.0
2016-Aug-27 00:33N 52°28' E 004°35'0 0.0
2016-Aug-26 23:33N 52°28' E 004°35'0 0.0
2016-Aug-26 22:33N 52°28' E 004°35'0 0.0
2016-Aug-26 21:33N 52°28' E 004°35'0 0.0
2016-Aug-26 20:33N 52°28' E 004°35'0 0.0
2016-Aug-26 19:33N 52°28' E 004°35'0 0.0
2016-Aug-26 18:33N 52°28' E 004°35'0 0.0
2016-Aug-26 17:33N 52°28' E 004°35'0 0.0
2016-Aug-26 16:33N 52°28' E 004°35'0 0.0
2016-Aug-26 15:33N 52°28' E 004°35'0 0.0
2016-Aug-26 14:33N 52°28' E 004°35'0 0.3
2016-Aug-26 13:33N 52°28' E 004°35'0 0.3
2016-Aug-26 12:33N 52°28' E 004°35'0 0.0
2016-Aug-26 11:33N 52°28' E 004°35'0 0.0
2016-Aug-26 10:33N 52°28' E 004°35'0 0.0
2016-Aug-26 09:33N 52°28' E 004°35'6 5.9
2016-Aug-26 08:33N 52°32' E 004°28'7 7.2
2016-Aug-26 07:34N 52°39' E 004°29'2 1.6
2016-Aug-26 06:33N 52°38' E 004°30'6 2.8
2016-Aug-26 04:33N 52°32' E 004°28'5 4.8
2016-Aug-26 03:33N 52°28' E 004°32'2 1.5
2016-Aug-26 02:33N 52°28' E 004°35'0 0.0
2016-Aug-26 01:33N 52°28' E 004°35'0 0.0
2016-Aug-26 00:33N 52°28' E 004°35'0 0.0
2016-Aug-25 23:33N 52°28' E 004°35'0 0.0
2016-Aug-25 22:33N 52°28' E 004°35'0 0.0
2016-Aug-25 21:33N 52°28' E 004°35'0 0.0
2016-Aug-25 20:33N 52°28' E 004°35'0 0.0
2016-Aug-25 19:33N 52°28' E 004°35'0 0.0
2016-Aug-25 18:33N 52°28' E 004°35'0 0.0
2016-Aug-25 17:33N 52°28' E 004°35'0 0.0
2016-Aug-25 16:33N 52°28' E 004°35'0 0.0
2016-Aug-25 15:32N 52°28' E 004°35'0 0.0
2016-Aug-25 14:33N 52°28' E 004°35'0 0.0
2016-Aug-25 13:33N 52°28' E 004°35'0 0.0
2016-Aug-25 12:33N 52°28' E 004°35'0 0.0
2016-Aug-25 11:33N 52°28' E 004°35'0 0.0
2016-Aug-25 10:33N 52°28' E 004°35'0 0.0
2016-Aug-25 09:33N 52°28' E 004°35'0 0.1
2016-Aug-25 08:33N 52°28' E 004°35'7 6.6
2016-Aug-25 07:33N 52°33' E 004°29'5 5.5
2016-Aug-25 06:33N 52°37' E 004°35'4 2.0
2016-Aug-25 04:33N 52°33' E 004°36'6 5.6
2016-Aug-25 03:33N 52°28' E 004°33'1 1.4
2016-Aug-25 02:33N 52°28' E 004°35'0 0.0
2016-Aug-25 01:33N 52°28' E 004°35'0 0.0
2016-Aug-25 00:33N 52°28' E 004°35'0 0.0
2016-Aug-24 23:33N 52°28' E 004°35'0 0.0
2016-Aug-24 22:33N 52°28' E 004°35'0 0.0
2016-Aug-24 21:33N 52°28' E 004°35'0 0.0
2016-Aug-24 20:33N 52°28' E 004°35'0 0.0
2016-Aug-24 19:33N 52°28' E 004°35'0 0.0
2016-Aug-24 18:33N 52°28' E 004°35'0 0.0
2016-Aug-24 17:33N 52°28' E 004°35'0 0.0
2016-Aug-24 16:33N 52°28' E 004°35'0 0.0
2016-Aug-24 15:33N 52°28' E 004°35'0 0.0
2016-Aug-24 14:33N 52°28' E 004°35'0 0.0
2016-Aug-24 13:33N 52°28' E 004°35'0 0.0
2016-Aug-24 12:32N 52°28' E 004°35'0 0.0
2016-Aug-24 11:33N 52°28' E 004°35'0 0.0
2016-Aug-24 10:33N 52°28' E 004°35'0 0.0
2016-Aug-24 09:33N 52°28' E 004°35'0 0.0
2016-Aug-24 08:33N 52°28' E 004°35'3 3.1
2016-Aug-24 07:33N 52°31' E 004°35'8 7.8
2016-Aug-24 06:34N 52°38' E 004°37'7 3.3
2016-Aug-24 04:33N 52°32' E 004°35'4 3.9
2016-Aug-24 03:33N 52°28' E 004°32'2 1.5
2016-Aug-24 02:34N 52°28' E 004°35'0 0.0
2016-Aug-24 01:34N 52°28' E 004°35'0 0.0
2016-Aug-24 00:33N 52°28' E 004°35'0 0.0
2016-Aug-23 23:34N 52°28' E 004°35'0 0.0
2016-Aug-23 22:33N 52°28' E 004°35'0 0.0
2016-Aug-23 21:33N 52°28' E 004°35'0 0.0
2016-Aug-23 20:33N 52°28' E 004°35'0 0.0
2016-Aug-23 19:33N 52°28' E 004°35'0 0.0
2016-Aug-23 18:33N 52°28' E 004°35'0 0.0
2016-Aug-23 17:33N 52°28' E 004°35'0 0.0
2016-Aug-23 16:33N 52°28' E 004°35'0 0.0
2016-Aug-23 15:33N 52°28' E 004°35'0 0.0
2016-Aug-23 14:33N 52°28' E 004°35'0 0.0
2016-Aug-23 13:34N 52°28' E 004°35'0 0.0
2016-Aug-23 12:34N 52°28' E 004°35'1 1.5
2016-Aug-23 11:33N 52°28' E 004°32'10 9.5
2016-Aug-23 10:33N 52°37' E 004°36'6 6.1
2016-Aug-23 09:34N 52°31' E 004°35'4 3.6
2016-Aug-23 08:33N 52°28' E 004°35'0 0.0
2016-Aug-23 07:33N 52°28' E 004°35'0 0.0
2016-Aug-23 06:33N 52°28' E 004°35'0 0.0
2016-Aug-23 05:33N 52°28' E 004°35'0 0.0
2016-Aug-23 04:33N 52°28' E 004°35'0 0.0
2016-Aug-23 03:33N 52°28' E 004°35'0 0.0
2016-Aug-23 02:33N 52°28' E 004°35'0 0.0
2016-Aug-23 01:33N 52°28' E 004°35'0 0.0
2016-Aug-23 00:33N 52°28' E 004°35'0 0.0
2016-Aug-22 23:33N 52°28' E 004°35'0 0.0
2016-Aug-22 22:33N 52°28' E 004°35'0 0.0
2016-Aug-22 21:33N 52°28' E 004°35'0 0.0
2016-Aug-22 20:33N 52°28' E 004°35'0 0.0
2016-Aug-22 19:33N 52°28' E 004°35'0 0.0
2016-Aug-22 18:33N 52°28' E 004°35'0 0.0
2016-Aug-22 17:33N 52°28' E 004°35'0 0.0
2016-Aug-22 16:33N 52°28' E 004°35'0 0.0
2016-Aug-22 15:33N 52°28' E 004°35'0 0.0
2016-Aug-22 14:33N 52°28' E 004°35'0 0.0
2016-Aug-22 13:34N 52°28' E 004°35'0 0.0
2016-Aug-22 12:33N 52°28' E 004°35'0 0.0
2016-Aug-22 11:33N 52°28' E 004°35'0 0.0
2016-Aug-22 10:33N 52°28' E 004°35'0 0.0
2016-Aug-22 09:33N 52°28' E 004°35'0 0.0
2016-Aug-22 08:33N 52°28' E 004°35'0 0.0
2016-Aug-22 07:33N 52°28' E 004°35'0 0.0
2016-Aug-22 06:33N 52°28' E 004°35'0 0.0
2016-Aug-22 05:33N 52°28' E 004°35'0 0.0
2016-Aug-22 04:33N 52°28' E 004°35'0 0.0
2016-Aug-22 03:33N 52°28' E 004°35'0 0.0
2016-Aug-22 02:33N 52°28' E 004°35'0 0.0
2016-Aug-22 01:33N 52°28' E 004°35'0 0.0
2016-Aug-22 00:33N 52°28' E 004°35'0 0.0
2016-Aug-21 23:33N 52°28' E 004°35'0 0.0
2016-Aug-21 22:33N 52°28' E 004°35'0 0.0
2016-Aug-21 21:33N 52°28' E 004°35'0 0.0
2016-Aug-21 20:33N 52°28' E 004°35'0 0.0
2016-Aug-21 19:33N 52°28' E 004°35'0 0.0
2016-Aug-21 18:33N 52°28' E 004°35'0 0.0
2016-Aug-21 17:33N 52°28' E 004°35'0 0.0
2016-Aug-21 16:33N 52°28' E 004°35'0 0.0
2016-Aug-21 15:33N 52°28' E 004°35'0 0.0
2016-Aug-21 14:33N 52°28' E 004°35'0 0.0
2016-Aug-21 13:33N 52°28' E 004°35'0 0.0
2016-Aug-21 11:33N 52°28' E 004°35'0 0.0
2016-Aug-21 10:33N 52°28' E 004°35'0 0.0
2016-Aug-21 09:33N 52°28' E 004°35'0 0.0
2016-Aug-21 08:33N 52°28' E 004°35'0 0.0
2016-Aug-21 07:33N 52°28' E 004°35'0 0.0
2016-Aug-21 06:33N 52°28' E 004°35'0 0.0
2016-Aug-21 05:33N 52°28' E 004°35'0 0.0
2016-Aug-21 04:33N 52°28' E 004°35'0 0.0
2016-Aug-21 03:33N 52°28' E 004°35'0 0.0
2016-Aug-21 02:33N 52°28' E 004°35'0 0.0
2016-Aug-21 01:33N 52°28' E 004°35'0 0.0
2016-Aug-21 00:33N 52°28' E 004°35'0 0.0
2016-Aug-20 23:33N 52°28' E 004°35'0 0.0
2016-Aug-20 22:33N 52°28' E 004°35'0 0.0
2016-Aug-20 21:33N 52°28' E 004°35'0 0.0
2016-Aug-20 20:33N 52°28' E 004°35'0 0.0
2016-Aug-20 19:33N 52°28' E 004°35'0 0.0
2016-Aug-20 18:33N 52°28' E 004°35'0 0.0
2016-Aug-20 17:33N 52°28' E 004°35'0 0.0
2016-Aug-20 16:33N 52°28' E 004°35'0 0.0
2016-Aug-20 15:33N 52°28' E 004°35'0 0.0
2016-Aug-20 14:33N 52°28' E 004°35'0 0.0
2016-Aug-20 13:33N 52°28' E 004°35'0 0.0
2016-Aug-20 12:33N 52°28' E 004°35'0 0.0
2016-Aug-20 11:33N 52°28' E 004°35'0 0.0
2016-Aug-20 10:33N 52°28' E 004°35'0 0.0
2016-Aug-20 09:33N 52°28' E 004°35'0 0.0
2016-Aug-20 08:33N 52°28' E 004°35'0 0.0
2016-Aug-20 07:33N 52°28' E 004°35'0 0.0
2016-Aug-20 06:33N 52°28' E 004°35'0 0.0
2016-Aug-20 05:33N 52°28' E 004°35'0 0.0
2016-Aug-20 04:33N 52°28' E 004°35'0 0.0
2016-Aug-20 03:33N 52°28' E 004°35'0 0.0
2016-Aug-20 02:33N 52°28' E 004°35'0 0.0
2016-Aug-20 01:33N 52°28' E 004°35'0 0.0
2016-Aug-20 00:33N 52°28' E 004°35'0 0.0
2016-Aug-19 23:33N 52°28' E 004°35'0 0.0
2016-Aug-19 22:33N 52°28' E 004°35'0 0.0
2016-Aug-19 21:33N 52°28' E 004°35'0 0.0
2016-Aug-19 20:33N 52°28' E 004°35'0 0.0
2016-Aug-19 19:33N 52°28' E 004°35'  
Track history (hours):
 
Tides and Currents Weather Stations Pressure Air Temp Water Temp Dewpoint Dewpoint Depression Visibility Wind Speed Wind Dir Waves Ship Positions

Velserdiep

Last reported at 2016-Aug-29 19:33 UTC. Time now 2016-Aug-29 20:00 UTC.
Position N 52°28' E 004°35'.

Length 120 m; draft 5 m.

Type: Cargo ship. MMSI: 244484000.

Date/timePositionNaut miles runAvg speedWind from/ knotsBaromVisibWave heightAir tempDewpointWater temp
2016-Aug-29 19:33N 52°28' E 004°35'0 0.0
2016-Aug-29 18:33N 52°28' E 004°35'0 0.0
2016-Aug-29 17:33N 52°28' E 004°35'0 0.0
2016-Aug-29 16:33N 52°28' E 004°35'0 0.0
2016-Aug-29 15:33N 52°28' E 004°35'0 0.0
2016-Aug-29 14:33N 52°28' E 004°35'0 0.0
2016-Aug-29 13:33N 52°28' E 004°35'0 0.0
2016-Aug-29 12:33N 52°28' E 004°35'6 6.2
2016-Aug-29 11:34N 52°32' E 004°27'7 7.0
2016-Aug-29 10:33N 52°38' E 004°30'6 6.2
2016-Aug-29 09:33N 52°32' E 004°31'5 5.2
2016-Aug-29 08:33N 52°28' E 004°35'0 0.0
2016-Aug-29 07:33N 52°28' E 004°35'0 0.0
2016-Aug-29 06:33N 52°28' E 004°35'0 0.0
2016-Aug-29 05:33N 52°28' E 004°35'0 0.0
2016-Aug-29 04:33N 52°28' E 004°35'0 0.0
2016-Aug-29 03:34N 52°28' E 004°35'0 0.0
2016-Aug-29 02:34N 52°28' E 004°35'0 0.0
2016-Aug-29 01:33N 52°28' E 004°35'0 0.0
2016-Aug-29 00:33N 52°28' E 004°35'0 0.0
2016-Aug-28 23:33N 52°28' E 004°35'0 0.0
2016-Aug-28 22:33N 52°28' E 004°35'0 0.0
2016-Aug-28 21:33N 52°28' E 004°35'0 0.0
2016-Aug-28 20:33N 52°28' E 004°35'0 0.0
2016-Aug-28 19:33N 52°28' E 004°35'0 0.0
2016-Aug-28 18:33N 52°28' E 004°35'0 0.0
2016-Aug-28 17:33N 52°28' E 004°35'0 0.0
2016-Aug-28 16:33N 52°28' E 004°35'0 0.0
2016-Aug-28 15:33N 52°28' E 004°35'0 0.0
2016-Aug-28 14:33N 52°28' E 004°35'0 0.0
2016-Aug-28 13:33N 52°28' E 004°35'0 0.0
2016-Aug-28 12:33N 52°28' E 004°35'0 0.0
2016-Aug-28 11:33N 52°28' E 004°35'0 0.0
2016-Aug-28 10:34N 52°28' E 004°35'0 0.0
2016-Aug-28 09:33N 52°28' E 004°35'0 0.0
2016-Aug-28 08:33N 52°28' E 004°35'0 0.0
2016-Aug-28 07:33N 52°28' E 004°35'0 0.0
2016-Aug-28 06:33N 52°28' E 004°35'0 0.0
2016-Aug-28 05:33N 52°28' E 004°35'0 0.0
2016-Aug-28 04:34N 52°28' E 004°35'0 0.0
2016-Aug-28 03:33N 52°28' E 004°35'0 0.0
2016-Aug-28 02:33N 52°28' E 004°35'0 0.0
2016-Aug-28 01:33N 52°28' E 004°35'0 0.0
2016-Aug-28 00:34N 52°28' E 004°35'0 0.0
2016-Aug-27 23:34N 52°28' E 004°35'0 0.0
2016-Aug-27 22:33N 52°28' E 004°35'0 0.0
2016-Aug-27 21:33N 52°28' E 004°35'0 0.0
2016-Aug-27 20:34N 52°28' E 004°35'0 0.0
2016-Aug-27 19:34N 52°28' E 004°35'0 0.0
2016-Aug-27 18:34N 52°28' E 004°35'0 0.0
2016-Aug-27 17:33N 52°28' E 004°35'0 0.0
2016-Aug-27 16:33N 52°28' E 004°35'0 0.0
2016-Aug-27 15:33N 52°28' E 004°35'0 0.0
2016-Aug-27 14:33N 52°28' E 004°35'0 0.0
2016-Aug-27 13:33N 52°28' E 004°35'0 0.0
2016-Aug-27 12:33N 52°28' E 004°35'0 0.0
2016-Aug-27 11:33N 52°28' E 004°35'0 0.0
2016-Aug-27 10:33N 52°28' E 004°35'0 0.0
2016-Aug-27 09:33N 52°28' E 004°35'0 0.0
2016-Aug-27 08:33N 52°28' E 004°35'5 5.3
2016-Aug-27 07:33N 52°32' E 004°31'7 7.3
2016-Aug-27 06:33N 52°40' E 004°29'6 3.1
2016-Aug-27 04:33N 52°34' E 004°27'6 5.9
2016-Aug-27 03:33N 52°28' E 004°32'2 2.0
2016-Aug-27 02:33N 52°28' E 004°35'0 0.0
2016-Aug-27 01:33N 52°28' E 004°35'0 0.0
2016-Aug-27 00:33N 52°28' E 004°35'0 0.0
2016-Aug-26 23:33N 52°28' E 004°35'0 0.0
2016-Aug-26 22:33N 52°28' E 004°35'0 0.0
2016-Aug-26 21:33N 52°28' E 004°35'0 0.0
2016-Aug-26 20:33N 52°28' E 004°35'0 0.0
2016-Aug-26 19:33N 52°28' E 004°35'0 0.0
2016-Aug-26 18:33N 52°28' E 004°35'0 0.0
2016-Aug-26 17:33N 52°28' E 004°35'0 0.0
2016-Aug-26 16:33N 52°28' E 004°35'0 0.0
2016-Aug-26 15:33N 52°28' E 004°35'0 0.0
2016-Aug-26 14:33N 52°28' E 004°35'0 0.3
2016-Aug-26 13:33N 52°28' E 004°35'0 0.3
2016-Aug-26 12:33N 52°28' E 004°35'0 0.0
2016-Aug-26 11:33N 52°28' E 004°35'0 0.0
2016-Aug-26 10:33N 52°28' E 004°35'0 0.0
2016-Aug-26 09:33N 52°28' E 004°35'6 5.9
2016-Aug-26 08:33N 52°32' E 004°28'7 7.2
2016-Aug-26 07:34N 52°39' E 004°29'2 1.6
2016-Aug-26 06:33N 52°38' E 004°30'6 2.8
2016-Aug-26 04:33N 52°32' E 004°28'5 4.8
2016-Aug-26 03:33N 52°28' E 004°32'2 1.5
2016-Aug-26 02:33N 52°28' E 004°35'0 0.0
2016-Aug-26 01:33N 52°28' E 004°35'0 0.0
2016-Aug-26 00:33N 52°28' E 004°35'0 0.0
2016-Aug-25 23:33N 52°28' E 004°35'0 0.0
2016-Aug-25 22:33N 52°28' E 004°35'0 0.0
2016-Aug-25 21:33N 52°28' E 004°35'0 0.0
2016-Aug-25 20:33N 52°28' E 004°35'0 0.0
2016-Aug-25 19:33N 52°28' E 004°35'0 0.0
2016-Aug-25 18:33N 52°28' E 004°35'0 0.0
2016-Aug-25 17:33N 52°28' E 004°35'0 0.0
2016-Aug-25 16:33N 52°28' E 004°35'0 0.0
2016-Aug-25 15:32N 52°28' E 004°35'0 0.0
2016-Aug-25 14:33N 52°28' E 004°35'0 0.0
2016-Aug-25 13:33N 52°28' E 004°35'0 0.0
2016-Aug-25 12:33N 52°28' E 004°35'0 0.0
2016-Aug-25 11:33N 52°28' E 004°35'0 0.0
2016-Aug-25 10:33N 52°28' E 004°35'0 0.0
2016-Aug-25 09:33N 52°28' E 004°35'0 0.1
2016-Aug-25 08:33N 52°28' E 004°35'7 6.6
2016-Aug-25 07:33N 52°33' E 004°29'5 5.5
2016-Aug-25 06:33N 52°37' E 004°35'4 2.0
2016-Aug-25 04:33N 52°33' E 004°36'6 5.6
2016-Aug-25 03:33N 52°28' E 004°33'1 1.4
2016-Aug-25 02:33N 52°28' E 004°35'0 0.0
2016-Aug-25 01:33N 52°28' E 004°35'0 0.0
2016-Aug-25 00:33N 52°28' E 004°35'0 0.0
2016-Aug-24 23:33N 52°28' E 004°35'0 0.0
2016-Aug-24 22:33N 52°28' E 004°35'0 0.0
2016-Aug-24 21:33N 52°28' E 004°35'0 0.0
2016-Aug-24 20:33N 52°28' E 004°35'0 0.0
2016-Aug-24 19:33N 52°28' E 004°35'0 0.0
2016-Aug-24 18:33N 52°28' E 004°35'0 0.0
2016-Aug-24 17:33N 52°28' E 004°35'0 0.0
2016-Aug-24 16:33N 52°28' E 004°35'0 0.0
2016-Aug-24 15:33N 52°28' E 004°35'0 0.0
2016-Aug-24 14:33N 52°28' E 004°35'0 0.0
2016-Aug-24 13:33N 52°28' E 004°35'0 0.0
2016-Aug-24 12:32N 52°28' E 004°35'0 0.0
2016-Aug-24 11:33N 52°28' E 004°35'0 0.0
2016-Aug-24 10:33N 52°28' E 004°35'0 0.0
2016-Aug-24 09:33N 52°28' E 004°35'0 0.0
2016-Aug-24 08:33N 52°28' E 004°35'3 3.1
2016-Aug-24 07:33N 52°31' E 004°35'8 7.8
2016-Aug-24 06:34N 52°38' E 004°37'7 3.3
2016-Aug-24 04:33N 52°32' E 004°35'4 3.9
2016-Aug-24 03:33N 52°28' E 004°32'2 1.5
2016-Aug-24 02:34N 52°28' E 004°35'0 0.0
2016-Aug-24 01:34N 52°28' E 004°35'0 0.0
2016-Aug-24 00:33N 52°28' E 004°35'0 0.0
2016-Aug-23 23:34N 52°28' E 004°35'0 0.0
2016-Aug-23 22:33N 52°28' E 004°35'0 0.0
2016-Aug-23 21:33N 52°28' E 004°35'0 0.0
2016-Aug-23 20:33N 52°28' E 004°35'0 0.0
2016-Aug-23 19:33N 52°28' E 004°35'0 0.0
2016-Aug-23 18:33N 52°28' E 004°35'0 0.0
2016-Aug-23 17:33N 52°28' E 004°35'0 0.0
2016-Aug-23 16:33N 52°28' E 004°35'0 0.0
2016-Aug-23 15:33N 52°28' E 004°35'0 0.0
2016-Aug-23 14:33N 52°28' E 004°35'0 0.0
2016-Aug-23 13:34N 52°28' E 004°35'0 0.0
2016-Aug-23 12:34N 52°28' E 004°35'1 1.5
2016-Aug-23 11:33N 52°28' E 004°32'10 9.5
2016-Aug-23 10:33N 52°37' E 004°36'6 6.1
2016-Aug-23 09:34N 52°31' E 004°35'4 3.6
2016-Aug-23 08:33N 52°28' E 004°35'0 0.0
2016-Aug-23 07:33N 52°28' E 004°35'0 0.0
2016-Aug-23 06:33N 52°28' E 004°35'0 0.0
2016-Aug-23 05:33N 52°28' E 004°35'0 0.0
2016-Aug-23 04:33N 52°28' E 004°35'0 0.0
2016-Aug-23 03:33N 52°28' E 004°35'0 0.0
2016-Aug-23 02:33N 52°28' E 004°35'0 0.0
2016-Aug-23 01:33N 52°28' E 004°35'0 0.0
2016-Aug-23 00:33N 52°28' E 004°35'0 0.0
2016-Aug-22 23:33N 52°28' E 004°35'0 0.0
2016-Aug-22 22:33N 52°28' E 004°35'0 0.0
2016-Aug-22 21:33N 52°28' E 004°35'0 0.0
2016-Aug-22 20:33N 52°28' E 004°35'0 0.0
2016-Aug-22 19:33N 52°28' E 004°35'0 0.0
2016-Aug-22 18:33N 52°28' E 004°35'0 0.0
2016-Aug-22 17:33N 52°28' E 004°35'0 0.0
2016-Aug-22 16:33N 52°28' E 004°35'0 0.0
2016-Aug-22 15:33N 52°28' E 004°35'0 0.0
2016-Aug-22 14:33N 52°28' E 004°35'0 0.0
2016-Aug-22 13:34N 52°28' E 004°35'0 0.0
2016-Aug-22 12:33N 52°28' E 004°35'0 0.0
2016-Aug-22 11:33N 52°28' E 004°35'0 0.0
2016-Aug-22 10:33N 52°28' E 004°35'0 0.0
2016-Aug-22 09:33N 52°28' E 004°35'0 0.0
2016-Aug-22 08:33N 52°28' E 004°35'0 0.0
2016-Aug-22 07:33N 52°28' E 004°35'0 0.0
2016-Aug-22 06:33N 52°28' E 004°35'0 0.0
2016-Aug-22 05:33N 52°28' E 004°35'0 0.0
2016-Aug-22 04:33N 52°28' E 004°35'0 0.0
2016-Aug-22 03:33N 52°28' E 004°35'0 0.0
2016-Aug-22 02:33N 52°28' E 004°35'0 0.0
2016-Aug-22 01:33N 52°28' E 004°35'0 0.0
2016-Aug-22 00:33N 52°28' E 004°35'0 0.0
2016-Aug-21 23:33N 52°28' E 004°35'0 0.0
2016-Aug-21 22:33N 52°28' E 004°35'0 0.0
2016-Aug-21 21:33N 52°28' E 004°35'0 0.0
2016-Aug-21 20:33N 52°28' E 004°35'0 0.0
2016-Aug-21 19:33N 52°28' E 004°35'0 0.0
2016-Aug-21 18:33N 52°28' E 004°35'0 0.0
2016-Aug-21 17:33N 52°28' E 004°35'0 0.0
2016-Aug-21 16:33N 52°28' E 004°35'0 0.0
2016-Aug-21 15:33N 52°28' E 004°35'0 0.0
2016-Aug-21 14:33N 52°28' E 004°35'0 0.0
2016-Aug-21 13:33N 52°28' E 004°35'0 0.0
2016-Aug-21 11:33N 52°28' E 004°35'0 0.0
2016-Aug-21 10:33N 52°28' E 004°35'0 0.0
2016-Aug-21 09:33N 52°28' E 004°35'0 0.0
2016-Aug-21 08:33N 52°28' E 004°35'0 0.0
2016-Aug-21 07:33N 52°28' E 004°35'0 0.0
2016-Aug-21 06:33N 52°28' E 004°35'0 0.0
2016-Aug-21 05:33N 52°28' E 004°35'0 0.0
2016-Aug-21 04:33N 52°28' E 004°35'0 0.0
2016-Aug-21 03:33N 52°28' E 004°35'0 0.0
2016-Aug-21 02:33N 52°28' E 004°35'0 0.0
2016-Aug-21 01:33N 52°28' E 004°35'0 0.0
2016-Aug-21 00:33N 52°28' E 004°35'0 0.0
2016-Aug-20 23:33N 52°28' E 004°35'0 0.0
2016-Aug-20 22:33N 52°28' E 004°35'0 0.0
2016-Aug-20 21:33N 52°28' E 004°35'0 0.0
2016-Aug-20 20:33N 52°28' E 004°35'0 0.0
2016-Aug-20 19:33N 52°28' E 004°35'0 0.0
2016-Aug-20 18:33N 52°28' E 004°35'0 0.0
2016-Aug-20 17:33N 52°28' E 004°35'0 0.0
2016-Aug-20 16:33N 52°28' E 004°35'0 0.0
2016-Aug-20 15:33N 52°28' E 004°35'0 0.0
2016-Aug-20 14:33N 52°28' E 004°35'0 0.0
2016-Aug-20 13:33N 52°28' E 004°35'0 0.0
2016-Aug-20 12:33N 52°28' E 004°35'0 0.0
2016-Aug-20 11:33N 52°28' E 004°35'0 0.0
2016-Aug-20 10:33N 52°28' E 004°35'0 0.0
2016-Aug-20 09:33N 52°28' E 004°35'0 0.0
2016-Aug-20 08:33N 52°28' E 004°35'0 0.0
2016-Aug-20 07:33N 52°28' E 004°35'0 0.0
2016-Aug-20 06:33N 52°28' E 004°35'0 0.0
2016-Aug-20 05:33N 52°28' E 004°35'0 0.0
2016-Aug-20 04:33N 52°28' E 004°35'0 0.0
2016-Aug-20 03:33N 52°28' E 004°35'0 0.0
2016-Aug-20 02:33N 52°28' E 004°35'0 0.0
2016-Aug-20 01:33N 52°28' E 004°35'0 0.0
2016-Aug-20 00:33N 52°28' E 004°35'0 0.0
2016-Aug-19 23:33N 52°28' E 004°35'0 0.0
2016-Aug-19 22:33N 52°28' E 004°35'0 0.0
2016-Aug-19 21:33N 52°28' E 004°35'0 0.0
2016-Aug-19 20:33N 52°28' E 004°35'0 0.0
2016-Aug-19 19:33N 52°28' E 004°35'  

Dump ship's entire track history